createdAt,value
2023-01-02T00:01:34.009Z,5.80
2023-01-02T00:04:02.381Z,5.88
2023-01-02T00:06:34.749Z,5.98
2023-01-02T00:09:04.063Z,5.88
2023-01-02T00:11:33.761Z,5.81
2023-01-02T00:14:02.200Z,5.69
2023-01-02T00:16:30.516Z,5.60
2023-01-02T00:18:58.831Z,5.68
2023-01-02T00:21:27.089Z,5.70
2023-01-02T00:23:55.456Z,5.86
2023-01-02T00:26:23.762Z,5.67
2023-01-02T00:28:53.457Z,5.75
2023-01-02T00:31:21.898Z,5.44
2023-01-02T00:33:50.217Z,5.45
2023-01-02T00:36:18.499Z,5.47
2023-01-02T00:38:46.808Z,5.65
2023-01-02T00:41:15.052Z,5.61
2023-01-02T00:43:43.832Z,5.44
2023-01-02T00:46:13.615Z,5.39
2023-01-02T00:48:41.929Z,5.24
2023-01-02T00:51:10.315Z,5.38
2023-01-02T00:53:38.887Z,5.37
2023-01-02T00:56:07.724Z,5.32
2023-01-02T00:58:36.027Z,5.14
2023-01-02T01:01:04.500Z,5.02
2023-01-02T01:03:34.454Z,5.31
2023-01-02T01:06:08.623Z,5.49
2023-01-02T01:08:37.261Z,5.48
2023-01-02T01:11:09.739Z,5.45
2023-01-02T01:13:38.042Z,5.26
2023-01-02T01:16:07.982Z,5.41
2023-01-02T01:18:37.963Z,5.39
2023-01-02T01:21:10.106Z,5.54
2023-01-02T01:23:38.917Z,5.51
2023-01-02T01:26:10.299Z,5.34
2023-01-02T01:28:39.353Z,5.26
2023-01-02T01:31:09.687Z,5.13
2023-01-02T01:33:40.054Z,5.17
2023-01-02T01:36:11.731Z,4.45
2023-01-02T01:38:40.153Z,4.08
2023-01-02T01:41:09.636Z,3.72
2023-01-02T01:43:44.241Z,4.14
2023-01-02T01:46:23.035Z,4.13
2023-01-02T01:48:59.063Z,4.67
2023-01-02T01:51:29.155Z,4.69
2023-01-02T01:54:04.090Z,4.59
2023-01-02T01:56:34.317Z,4.57
2023-01-02T01:59:02.653Z,4.31
2023-01-02T02:01:31.199Z,4.48
2023-01-02T02:04:01.241Z,4.40
2023-01-02T02:06:30.449Z,4.61
2023-01-02T02:09:03.037Z,4.73
2023-01-02T02:11:32.336Z,4.72
2023-01-02T02:14:01.913Z,4.83
2023-01-02T02:16:39.345Z,4.86
2023-01-02T02:19:50.326Z,4.98
2023-01-02T02:22:37.321Z,4.88
2023-01-02T02:25:44.581Z,4.44
2023-01-02T02:28:39.507Z,4.43
2023-01-02T02:31:14.707Z,4.74
2023-01-02T02:33:49.954Z,4.85
2023-01-02T02:36:23.782Z,4.78
2023-01-02T02:39:02.774Z,4.56
2023-01-02T02:41:35.723Z,4.68
2023-01-02T02:44:21.733Z,3.65
2023-01-02T02:46:57.507Z,4.44
2023-01-02T02:49:37.949Z,4.68
2023-01-02T02:52:12.798Z,4.61
2023-01-02T02:54:47.047Z,4.19
2023-01-02T02:57:16.482Z,4.22
2023-01-02T02:59:45.008Z,4.81
2023-01-02T03:02:17.613Z,4.85
2023-01-02T03:04:49.791Z,4.73
2023-01-02T03:07:26.479Z,4.86
2023-01-02T03:10:06.065Z,4.72
2023-01-02T03:12:41.517Z,4.68
2023-01-02T03:15:19.841Z,4.52
2023-01-02T03:18:01.958Z,4.06
2023-01-02T03:20:39.165Z,4.46
2023-01-02T03:23:11.763Z,4.50
2023-01-02T03:25:41.949Z,4.67
2023-01-02T03:28:13.203Z,4.67
2023-01-02T03:30:43.718Z,4.71
2023-01-02T03:33:18.016Z,4.72
2023-01-02T03:35:48.710Z,4.67
2023-01-02T03:38:21.888Z,4.66
2023-01-02T03:40:55.421Z,4.82
2023-01-02T03:43:29.349Z,4.21
2023-01-02T03:46:05.170Z,4.45
2023-01-02T03:48:39.276Z,3.92
2023-01-02T03:51:08.101Z,4.39
2023-01-02T03:53:39.520Z,4.66
2023-01-02T03:56:19.176Z,4.60
2023-01-02T03:58:51.856Z,4.76
2023-01-02T04:01:32.214Z,4.85
2023-01-02T04:04:09.428Z,4.71
2023-01-02T04:06:43.286Z,3.95
2023-01-02T04:09:15.689Z,4.32
2023-01-02T04:11:50.803Z,4.38
2023-01-02T04:14:23.864Z,4.18
2023-01-02T04:16:54.684Z,4.29
2023-01-02T04:19:27.689Z,4.29
2023-01-02T04:22:01.202Z,4.35
2023-01-02T04:24:33.562Z,4.44
2023-01-02T04:27:07.365Z,4.34
2023-01-02T04:29:35.707Z,4.32
2023-01-02T04:32:10.330Z,4.36
2023-01-02T04:34:42.402Z,4.07
2023-01-02T04:37:10.581Z,4.12
2023-01-02T04:39:39.705Z,4.12
2023-01-02T04:42:08.075Z,3.90
2023-01-02T04:44:36.412Z,4.15
2023-01-02T04:47:04.672Z,3.85
2023-01-02T04:49:32.909Z,3.72
2023-01-02T04:52:02.604Z,3.81
2023-01-02T04:54:30.878Z,3.77
2023-01-02T04:56:59.203Z,4.13
2023-01-02T04:59:27.455Z,3.89
2023-01-02T05:01:55.799Z,3.91
2023-01-02T05:04:24.138Z,3.86
2023-01-02T05:06:52.415Z,4.01
2023-01-02T05:09:22.099Z,4.06
2023-01-02T05:11:50.397Z,4.19
2023-01-02T05:14:18.668Z,3.33
2023-01-02T05:16:46.997Z,4.14
2023-01-02T05:19:15.514Z,4.00
2023-01-02T05:22:01.234Z,3.69
2023-01-02T05:24:30.902Z,3.69
2023-01-02T05:26:59.258Z,3.18
2023-01-02T05:29:27.825Z,2.81
2023-01-02T05:31:56.121Z,2.27
2023-01-02T05:34:24.347Z,2.02
2023-01-02T05:36:52.614Z,1.86
2023-01-02T05:39:20.921Z,1.85
2023-01-02T05:41:50.600Z,1.88
2023-01-02T05:44:18.901Z,1.89
2023-01-02T05:46:47.261Z,1.63
2023-01-02T05:49:15.483Z,1.44
2023-01-02T05:51:43.800Z,1.33
2023-01-02T05:54:12.157Z,1.69
2023-01-02T05:56:40.361Z,1.97
2023-01-02T05:59:10.135Z,2.29
2023-01-02T06:01:38.571Z,2.48
2023-01-02T06:04:06.966Z,3.20
2023-01-02T06:06:37.135Z,3.56
2023-01-02T06:09:07.591Z,2.79
2023-01-02T06:11:36.372Z,3.07
2023-01-02T06:14:04.628Z,2.36
2023-01-02T06:16:34.386Z,2.20
2023-01-02T06:19:02.741Z,2.60
2023-01-02T06:21:31.143Z,3.29
2023-01-02T06:23:59.733Z,3.47
2023-01-02T06:26:34.604Z,3.75
2023-01-02T06:29:04.227Z,3.77
2023-01-02T06:31:34.311Z,3.45
2023-01-02T06:34:03.942Z,3.29
2023-01-02T06:36:34.216Z,3.24
2023-01-02T06:39:02.793Z,2.94
2023-01-02T06:41:31.130Z,3.33
2023-01-02T06:43:59.321Z,3.59
2023-01-02T06:46:27.696Z,3.89
2023-01-02T06:48:57.395Z,4.24
2023-01-02T06:51:25.921Z,4.47
2023-01-02T06:53:54.267Z,4.78
2023-01-02T06:56:23.662Z,4.85
2023-01-02T06:58:52.000Z,5.61
2023-01-02T07:01:24.128Z,5.66
2023-01-02T07:03:52.481Z,5.98
2023-01-02T07:06:23.774Z,6.11
2023-01-02T07:08:52.038Z,6.16
2023-01-02T07:11:23.836Z,6.09
2023-01-02T07:13:54.457Z,6.43
2023-01-02T07:16:24.223Z,6.67
2023-01-02T07:18:54.024Z,7.12
2023-01-02T07:21:24.105Z,6.76
2023-01-02T07:23:52.394Z,7.58
2023-01-02T07:26:21.994Z,7.45
2023-01-02T07:28:50.338Z,8.06
2023-01-02T07:31:21.317Z,8.38
2023-01-02T07:33:49.612Z,8.25
2023-01-02T07:36:22.329Z,8.37
2023-01-02T07:38:53.008Z,8.38
2023-01-02T07:41:23.378Z,8.54
2023-01-02T07:43:52.457Z,8.71
2023-01-02T07:46:21.570Z,8.85
2023-01-02T07:48:50.597Z,9.31
2023-01-02T07:51:24.748Z,9.54
2023-01-02T07:53:56.970Z,9.52
2023-01-02T07:56:25.531Z,9.32
2023-01-02T07:58:54.220Z,9.66
2023-01-02T08:01:22.729Z,9.30
2023-01-02T08:03:51.052Z,8.74
2023-01-02T08:06:20.233Z,8.59
2023-01-02T08:08:48.945Z,7.62
2023-01-02T08:11:21.385Z,7.64
2023-01-02T08:13:50.080Z,7.99
2023-01-02T08:16:20.134Z,8.34
2023-01-02T08:18:51.548Z,8.39
2023-01-02T08:21:19.949Z,8.67
2023-01-02T08:23:48.172Z,8.83
2023-01-02T08:26:16.534Z,9.36
2023-01-02T08:28:46.263Z,10.08
2023-01-02T08:31:17.487Z,10.15
2023-01-02T08:33:46.340Z,10.83
2023-01-02T08:36:15.433Z,11.50
2023-01-02T08:38:44.158Z,11.57
2023-01-02T08:41:12.554Z,11.18
2023-01-02T08:43:41.295Z,11.65
2023-01-02T08:46:11.910Z,12.30
2023-01-02T08:48:40.168Z,12.49
2023-01-02T08:51:08.653Z,12.57
2023-01-02T08:53:36.902Z,12.71
2023-01-02T08:56:26.458Z,13.11
2023-01-02T08:58:56.183Z,13.69
2023-01-02T09:01:29.037Z,13.93
2023-01-02T09:03:58.609Z,14.65
2023-01-02T09:06:28.227Z,14.52
2023-01-02T09:08:59.060Z,13.82
2023-01-02T09:11:30.085Z,15.25
2023-01-02T09:14:00.691Z,14.86
2023-01-02T09:16:31.029Z,14.99
2023-01-02T09:19:00.757Z,13.83
2023-01-02T09:21:29.391Z,15.09
2023-01-02T09:23:58.048Z,15.35
2023-01-02T09:26:26.794Z,15.19
2023-01-02T09:28:55.133Z,15.57
2023-01-02T09:31:23.493Z,15.49
2023-01-02T09:33:54.991Z,16.00
2023-01-02T09:36:23.901Z,15.88
2023-01-02T09:38:53.352Z,15.99
2023-01-02T09:41:31.477Z,16.13
2023-01-02T09:44:03.292Z,16.75
2023-01-02T09:46:41.647Z,18.37
2023-01-02T09:49:15.532Z,18.38
2023-01-02T09:51:45.207Z,17.55
2023-01-02T09:54:19.846Z,18.39
2023-01-02T09:56:52.833Z,17.62
2023-01-02T09:59:28.317Z,17.22
2023-01-02T10:02:04.770Z,17.73
2023-01-02T10:04:49.363Z,18.37
2023-01-02T10:07:24.596Z,18.67
2023-01-02T10:09:58.889Z,18.23
2023-01-02T10:12:33.527Z,18.21
2023-01-02T10:15:04.564Z,18.18
2023-01-02T10:17:38.446Z,18.49
2023-01-02T10:20:23.812Z,19.27
2023-01-02T10:22:55.815Z,19.73
2023-01-02T10:25:28.305Z,19.68
2023-01-02T10:28:02.615Z,19.81
2023-01-02T10:30:37.550Z,20.24
2023-01-02T10:33:12.387Z,20.31
2023-01-02T10:35:45.655Z,20.94
2023-01-02T10:38:16.042Z,21.12
2023-01-02T10:40:47.163Z,20.81
2023-01-02T10:43:16.250Z,20.84
2023-01-02T10:45:45.054Z,20.38
2023-01-02T10:48:14.533Z,20.03
2023-01-02T10:50:50.210Z,20.53
2023-01-02T10:53:23.649Z,21.74
2023-01-02T10:55:52.056Z,21.89
2023-01-02T10:58:24.070Z,21.10
2023-01-02T11:00:54.153Z,20.82
2023-01-02T11:03:25.393Z,20.67
2023-01-02T11:06:02.137Z,21.39
2023-01-02T11:08:40.753Z,22.17
2023-01-02T11:11:15.404Z,23.78
2023-01-02T11:13:53.857Z,23.95
2023-01-02T11:16:24.626Z,24.44
2023-01-02T11:18:55.595Z,24.77
2023-01-02T11:21:31.431Z,23.73
2023-01-02T11:24:02.780Z,23.93
2023-01-02T11:26:33.210Z,23.91
2023-01-02T11:29:09.452Z,24.78
2023-01-02T11:31:44.719Z,22.92
2023-01-02T11:34:21.200Z,23.68
2023-01-02T11:37:03.591Z,24.20
2023-01-02T11:39:33.559Z,23.64
2023-01-02T11:42:29.768Z,23.71
2023-01-02T11:45:04.370Z,23.91
2023-01-02T11:47:35.134Z,23.21
2023-01-02T11:50:04.568Z,23.22
2023-01-02T11:52:41.263Z,23.78
2023-01-02T11:55:20.557Z,24.25
2023-01-02T11:57:54.533Z,24.85
2023-01-02T12:00:24.931Z,25.51
2023-01-02T12:02:54.784Z,26.01
2023-01-02T12:05:28.687Z,25.40
2023-01-02T12:08:07.875Z,23.85
2023-01-02T12:10:50.531Z,23.87
2023-01-02T12:13:43.504Z,24.77
2023-01-02T12:16:24.824Z,24.40
2023-01-02T12:19:09.673Z,24.57
2023-01-02T12:21:46.333Z,25.00
2023-01-02T12:24:43.237Z,24.75
2023-01-02T12:27:18.559Z,23.82
2023-01-02T12:30:08.898Z,25.46
2023-01-02T12:33:00.458Z,25.18
2023-01-02T12:35:49.070Z,25.25
2023-01-02T12:38:30.077Z,26.02
2023-01-02T12:41:15.480Z,25.40
2023-01-02T12:43:58.610Z,25.60
2023-01-02T12:46:40.085Z,23.95
2023-01-02T12:49:24.059Z,23.98
2023-01-02T12:52:00.762Z,22.97
2023-01-02T12:54:44.395Z,23.34
2023-01-02T12:57:22.888Z,21.05
2023-01-02T13:00:19.602Z,20.41
2023-01-02T13:03:10.020Z,20.90
2023-01-02T13:05:43.512Z,22.16
2023-01-02T13:08:20.319Z,23.02
2023-01-02T13:10:49.586Z,23.47
2023-01-02T13:13:20.248Z,23.98
2023-01-02T13:15:51.800Z,23.56
2023-01-02T13:18:26.141Z,23.72
2023-01-02T13:21:02.421Z,24.06
2023-01-02T13:23:35.586Z,23.77
2023-01-02T13:26:07.689Z,23.61
2023-01-02T13:28:43.471Z,23.26
2023-01-02T13:31:45.408Z,23.26
2023-01-02T13:34:10.182Z,22.33
2023-01-02T13:36:40.684Z,21.94
2023-01-02T13:39:19.281Z,21.55
2023-01-02T13:42:09.730Z,21.08
2023-01-02T13:44:43.132Z,20.72
2023-01-02T13:47:24.566Z,21.72
2023-01-02T13:50:09.988Z,21.04
2023-01-02T13:52:39.107Z,20.63
2023-01-02T13:55:32.859Z,20.40
2023-01-02T13:58:25.193Z,20.62
2023-01-02T14:00:56.742Z,20.41
2023-01-02T14:03:37.167Z,19.76
2023-01-02T14:06:27.728Z,20.36
2023-01-02T14:09:18.301Z,18.60
2023-01-02T14:11:55.710Z,18.02
2023-01-02T14:14:29.945Z,16.79
2023-01-02T14:17:17.214Z,15.50
2023-01-02T14:19:46.224Z,15.88
2023-01-02T14:22:16.624Z,16.47
2023-01-02T14:24:47.442Z,16.60
2023-01-02T14:27:24.202Z,15.09
2023-01-02T14:29:54.834Z,14.09
2023-01-02T14:32:36.186Z,13.64
2023-01-02T14:35:08.412Z,13.08
2023-01-02T14:37:41.079Z,12.55
2023-01-02T14:40:19.698Z,12.56
2023-01-02T14:43:12.201Z,12.24
2023-01-02T14:45:45.578Z,12.54
2023-01-02T14:48:18.522Z,13.02
2023-01-02T14:50:49.764Z,13.63
2023-01-02T14:53:22.987Z,13.23
2023-01-02T14:55:54.408Z,12.43
2023-01-02T14:58:40.127Z,11.55
2023-01-02T15:01:09.931Z,12.11
2023-01-02T15:03:49.095Z,12.42
2023-01-02T15:06:24.571Z,12.07
2023-01-02T15:08:55.136Z,11.81
2023-01-02T15:11:42.960Z,11.91
2023-01-02T15:14:17.820Z,12.16
2023-01-02T15:16:53.247Z,12.64
2023-01-02T15:19:26.689Z,12.16
2023-01-02T15:21:56.261Z,12.19
2023-01-02T15:24:27.258Z,12.05
2023-01-02T15:26:57.251Z,11.92
2023-01-02T15:29:27.307Z,12.33
2023-01-02T15:31:57.707Z,12.15
2023-01-02T15:34:29.489Z,11.65
2023-01-02T15:36:59.770Z,10.67
2023-01-02T15:39:34.762Z,10.72
2023-01-02T15:42:11.898Z,10.95
2023-01-02T15:44:58.250Z,10.01
2023-01-02T15:47:28.441Z,10.95
2023-01-02T15:49:59.163Z,11.32
2023-01-02T15:52:31.352Z,10.72
2023-01-02T15:55:00.643Z,10.34
2023-01-02T15:57:32.110Z,9.86
2023-01-02T16:00:01.105Z,9.47
2023-01-02T16:02:35.437Z,9.38
2023-01-02T16:05:10.995Z,8.93
2023-01-02T16:07:40.417Z,10.44
2023-01-02T16:10:15.472Z,10.13
2023-01-02T16:12:43.985Z,11.11
2023-01-02T16:15:22.569Z,10.77
2023-01-02T16:17:52.107Z,10.98
2023-01-02T16:20:23.674Z,9.87
2023-01-02T16:22:55.902Z,9.96
2023-01-02T16:25:26.284Z,9.75
2023-01-02T16:27:57.687Z,9.21
2023-01-02T16:30:39.210Z,9.26
2023-01-02T16:33:23.194Z,9.95
2023-01-02T16:36:01.057Z,10.08
2023-01-02T16:38:30.427Z,10.15
2023-01-02T16:41:03.321Z,10.10
2023-01-02T16:43:38.007Z,9.86
2023-01-02T16:46:14.553Z,9.47
2023-01-02T16:48:44.100Z,8.88
2023-01-02T16:51:16.275Z,8.93
2023-01-02T16:53:45.946Z,8.58
2023-01-02T16:56:15.123Z,9.46
2023-01-02T16:58:43.670Z,9.56
2023-01-02T17:01:14.469Z,9.94
2023-01-02T17:03:43.106Z,9.90
2023-01-02T17:06:15.893Z,9.57
2023-01-02T17:08:44.584Z,9.92
2023-01-02T17:11:15.971Z,9.77
2023-01-02T17:13:44.638Z,9.82
2023-01-02T17:16:12.899Z,9.86
2023-01-02T17:18:41.264Z,8.95
2023-01-02T17:21:09.585Z,9.73
2023-01-02T17:23:39.503Z,9.63
2023-01-02T17:26:07.749Z,9.62
2023-01-02T17:28:36.849Z,9.59
2023-01-02T17:31:05.668Z,9.54
2023-01-02T17:33:33.985Z,9.44
2023-01-02T17:36:02.314Z,9.39
2023-01-02T17:38:30.555Z,9.29
2023-01-02T17:41:01.478Z,9.29
2023-01-02T17:43:29.744Z,9.18
2023-01-02T17:45:58.049Z,8.60
2023-01-02T17:48:26.390Z,9.18
2023-01-02T17:50:55.334Z,8.71
2023-01-02T17:53:23.614Z,8.68
2023-01-02T17:56:20.987Z,8.92
2023-01-02T17:58:43.823Z,8.85
2023-01-02T18:01:17.324Z,8.74
2023-01-02T18:03:45.963Z,8.76
2023-01-02T18:06:14.832Z,8.57
2023-01-02T18:08:43.376Z,8.39
2023-01-02T18:11:14.766Z,8.39
2023-01-02T18:13:48.590Z,8.54
2023-01-02T18:16:20.072Z,8.37
2023-01-02T18:18:49.061Z,8.30
2023-01-02T18:21:20.503Z,8.43
2023-01-02T18:23:51.098Z,8.36
2023-01-02T18:26:20.348Z,7.84
2023-01-02T18:28:52.260Z,8.22
2023-01-02T18:31:22.495Z,7.63
2023-01-02T18:33:52.735Z,8.23
2023-01-02T18:36:22.996Z,8.27
2023-01-02T18:38:55.339Z,7.85
2023-01-02T18:41:25.468Z,8.11
2023-01-02T18:44:01.549Z,8.14
2023-01-02T18:47:02.411Z,7.95
2023-01-02T18:49:25.198Z,8.04
2023-01-02T18:52:01.812Z,7.73
2023-01-02T18:54:31.871Z,8.05
2023-01-02T18:57:01.751Z,7.96
2023-01-02T18:59:33.456Z,7.60
2023-01-02T19:02:03.381Z,7.89
2023-01-02T19:04:36.144Z,7.89
2023-01-02T19:07:19.040Z,7.96
2023-01-02T19:09:47.304Z,8.22
2023-01-02T19:12:43.369Z,8.29
2023-01-02T19:15:40.669Z,8.35
2023-01-02T19:18:28.123Z,8.36
2023-01-02T19:21:00.281Z,8.15
2023-01-02T19:23:31.590Z,8.34
2023-01-02T19:26:09.202Z,8.38
2023-01-02T19:28:38.256Z,8.30
2023-01-02T19:31:15.340Z,8.13
2023-01-02T19:33:48.069Z,8.28
2023-01-02T19:36:19.353Z,8.37
2023-01-02T19:38:53.735Z,8.19
2023-01-02T19:41:42.809Z,8.42
2023-01-02T19:44:11.139Z,8.43
2023-01-02T19:46:40.789Z,8.34
2023-01-02T19:49:09.031Z,8.37
2023-01-02T19:51:37.243Z,8.48
2023-01-02T19:54:06.003Z,8.44
2023-01-02T19:56:34.353Z,8.31
2023-01-02T19:59:09.425Z,7.95
2023-01-02T20:01:42.459Z,8.10
2023-01-02T20:04:10.836Z,8.27
2023-01-02T20:06:39.100Z,8.32
2023-01-02T20:09:07.530Z,8.24
2023-01-02T20:11:53.052Z,8.21
2023-01-02T20:14:21.516Z,8.20
2023-01-02T20:16:51.246Z,8.10
2023-01-02T20:19:19.531Z,8.25
2023-01-02T20:21:47.839Z,8.04
2023-01-02T20:24:16.075Z,7.97
2023-01-02T20:26:44.356Z,7.99
2023-01-02T20:29:12.678Z,7.95
2023-01-02T20:31:40.926Z,7.92
2023-01-02T20:34:10.770Z,7.86
2023-01-02T20:36:39.238Z,7.81
2023-01-02T20:39:08.799Z,7.89
2023-01-02T20:41:40.135Z,7.51
2023-01-02T20:44:09.307Z,7.65
2023-01-02T20:46:38.204Z,7.90
2023-01-02T20:49:07.216Z,7.89
2023-01-02T20:51:37.594Z,7.87
2023-01-02T20:54:07.144Z,7.90
2023-01-02T20:56:36.255Z,7.84
2023-01-02T20:59:04.584Z,7.79
2023-01-02T21:01:33.198Z,7.45
2023-01-02T21:04:01.642Z,7.73
2023-01-02T21:06:29.922Z,7.63
2023-01-02T21:09:00.928Z,7.83
2023-01-02T21:11:29.395Z,7.73
2023-01-02T21:13:58.131Z,7.69
2023-01-02T21:16:26.875Z,7.54
2023-01-02T21:18:55.232Z,7.47
2023-01-02T21:21:23.503Z,7.47
2023-01-02T21:23:51.793Z,7.58
2023-01-02T21:26:23.733Z,7.15
2023-01-02T21:28:52.273Z,7.50
2023-01-02T21:31:21.497Z,7.43
2023-01-02T21:33:50.491Z,7.54
2023-01-02T21:36:18.838Z,7.28
2023-01-02T21:38:47.136Z,7.34
2023-01-02T21:41:32.767Z,7.51
2023-01-02T21:44:02.464Z,6.93
2023-01-02T21:46:30.723Z,7.48
2023-01-02T21:48:59.135Z,7.41
2023-01-02T21:51:32.712Z,7.39
2023-01-02T21:54:01.796Z,7.27
2023-01-02T21:56:30.640Z,7.25
2023-01-02T21:58:59.041Z,7.25
2023-01-02T22:01:29.036Z,6.81
2023-01-02T22:03:57.527Z,7.26
2023-01-02T22:06:26.178Z,7.32
2023-01-02T22:08:54.378Z,7.20
2023-01-02T22:11:39.838Z,7.30
2023-01-02T22:14:08.048Z,7.18
2023-01-02T22:16:37.856Z,7.12
2023-01-02T22:19:06.169Z,7.16
2023-01-02T22:21:34.447Z,6.84
2023-01-02T22:24:02.745Z,7.15
2023-01-02T22:26:31.257Z,7.15
2023-01-02T22:29:00.169Z,7.21
2023-01-02T22:31:29.311Z,7.22
2023-01-02T22:33:59.328Z,7.15
2023-01-02T22:36:31.447Z,7.01
2023-01-02T22:39:27.181Z,6.77
2023-01-02T22:41:51.371Z,7.03
2023-01-02T22:44:26.740Z,6.89
2023-01-02T22:46:56.511Z,6.67
2023-01-02T22:49:30.423Z,6.72
2023-01-02T22:52:07.083Z,6.81
2023-01-02T22:54:35.701Z,7.12
2023-01-02T22:57:04.033Z,6.89
2023-01-02T22:59:32.360Z,7.00
2023-01-02T23:02:00.716Z,6.86
2023-01-02T23:04:30.524Z,6.49
2023-01-02T23:07:23.498Z,6.44
2023-01-02T23:09:47.321Z,6.37
2023-01-02T23:12:15.809Z,6.51
2023-01-02T23:14:44.350Z,6.57
2023-01-02T23:17:30.452Z,6.59
2023-01-02T23:20:00.176Z,6.45
2023-01-02T23:22:28.423Z,6.46
2023-01-02T23:24:56.682Z,6.54
2023-01-02T23:27:25.008Z,6.45
2023-01-02T23:29:53.358Z,6.40
2023-01-02T23:32:21.611Z,6.11
2023-01-02T23:34:49.931Z,6.53
2023-01-02T23:37:19.603Z,6.37
2023-01-02T23:39:47.900Z,6.51
2023-01-02T23:42:16.182Z,6.30
2023-01-02T23:44:44.488Z,6.37
2023-01-02T23:47:18.736Z,6.23
2023-01-02T23:49:47.493Z,6.23
2023-01-02T23:52:15.722Z,6.24
2023-01-02T23:54:45.526Z,6.27
2023-01-02T23:57:13.863Z,6.00
2023-01-02T23:59:42.108Z,6.28
